EZY97DN EGKK-LTFE
Flight info
| Callsign | EZY97DN |
|---|---|
| Flight time | N/A |
| Altitude | 35000 |
| Route | MIMFO Y312 DVR UL9 KONAN DCT KOK DCT REMBA DCT LIRSU DCT KRH DCT KUNOD DCT GEDSO DCT VEKEN DCT NEMEK DCT ETOBI DCT OSLUD DCT GORAV DCT MEDUX UM867 KOGAT DCT DISOR DCT FSK DCT RIKSO UP14 TUFUB/N0392F270 M19 OZNEF |
| Aircraft | A320/M-SDE2E3FGHIRWXY/LB1 |
Departure
| Time | 2026-04-16 13:43 |
|---|---|
| Airport | London Gatwick Airport (EGKK) |
Arrival
| Time | N/A |
|---|---|
| Airport | Milas Bodrum International Airport (LTFE) |
| Time | Latitude | Longitude | Altitude | Speed | Heading |
|---|---|---|---|---|---|
| 2026-04-16 13:19 | 51.16311 | -0.18082 | 200 ft | 0 kts | 77° |
| 2026-04-16 13:28 | 51.16310 | -0.18087 | 200 ft | 0 kts | 95° |
| 2026-04-16 13:28 | 51.16314 | -0.18108 | 200 ft | 2 kts | 109° |
| 2026-04-16 13:28 | 51.16315 | -0.18127 | 200 ft | 2 kts | 72° |
| 2026-04-16 13:29 | 51.16311 | -0.18149 | 200 ft | 2 kts | 79° |
| 2026-04-16 13:29 | 51.16307 | -0.18173 | 200 ft | 2 kts | 76° |
| 2026-04-16 13:29 | 51.16304 | -0.18196 | 200 ft | 2 kts | 77° |
| 2026-04-16 13:29 | 51.16300 | -0.18220 | 200 ft | 2 kts | 76° |
| 2026-04-16 13:30 | 51.16299 | -0.18243 | 200 ft | 2 kts | 108° |
| 2026-04-16 13:30 | 51.16303 | -0.18256 | 200 ft | 1 kts | 123° |
| 2026-04-16 13:30 | 51.16299 | -0.18246 | 200 ft | 2 kts | 128° |
| 2026-04-16 13:30 | 51.16285 | -0.18236 | 200 ft | 1 kts | 168° |
| 2026-04-16 13:31 | 51.16284 | -0.18236 | 200 ft | 0 kts | 168° |
| 2026-04-16 13:34 | 51.16280 | -0.18234 | 200 ft | 1 kts | 168° |
| 2026-04-16 13:34 | 51.16267 | -0.18229 | 200 ft | 3 kts | 168° |
| 2026-04-16 13:35 | 51.16235 | -0.18218 | 200 ft | 6 kts | 168° |
| 2026-04-16 13:35 | 51.16180 | -0.18199 | 200 ft | 9 kts | 167° |
| 2026-04-16 13:35 | 51.16103 | -0.18172 | 200 ft | 12 kts | 168° |
| 2026-04-16 13:35 | 51.16013 | -0.18143 | 200 ft | 13 kts | 169° |
| 2026-04-16 13:36 | 51.15918 | -0.18108 | 200 ft | 14 kts | 166° |
| 2026-04-16 13:36 | 51.15814 | -0.18069 | 200 ft | 15 kts | 168° |
| 2026-04-16 13:36 | 51.15712 | -0.18020 | 200 ft | 15 kts | 130° |
| 2026-04-16 13:36 | 51.15714 | -0.17852 | 200 ft | 16 kts | 78° |
| 2026-04-16 13:37 | 51.15739 | -0.17674 | 200 ft | 16 kts | 77° |
| 2026-04-16 13:37 | 51.15735 | -0.17508 | 200 ft | 15 kts | 153° |
| 2026-04-16 13:37 | 51.15626 | -0.17467 | 200 ft | 16 kts | 166° |
| 2026-04-16 13:37 | 51.15512 | -0.17427 | 200 ft | 16 kts | 169° |
| 2026-04-16 13:38 | 51.15397 | -0.17391 | 200 ft | 17 kts | 166° |
| 2026-04-16 13:38 | 51.15282 | -0.17346 | 200 ft | 17 kts | 162° |
| 2026-04-16 13:38 | 51.15252 | -0.17193 | 200 ft | 16 kts | 75° |
| 2026-04-16 13:38 | 51.15279 | -0.17013 | 200 ft | 16 kts | 78° |
| 2026-04-16 13:39 | 51.15293 | -0.16853 | 200 ft | 9 kts | 115° |
| 2026-04-16 13:39 | 51.15241 | -0.16814 | 200 ft | 0 kts | 166° |
| 2026-04-16 13:40 | 51.15240 | -0.16814 | 200 ft | 0 kts | 166° |
| 2026-04-16 13:40 | 51.15212 | -0.16803 | 200 ft | 8 kts | 166° |
| 2026-04-16 13:40 | 51.15149 | -0.16783 | 200 ft | 9 kts | 182° |
| 2026-04-16 13:41 | 51.15116 | -0.16844 | 200 ft | 0 kts | 256° |
| 2026-04-16 13:42 | 51.15114 | -0.16858 | 200 ft | 10 kts | 255° |
| 2026-04-16 13:42 | 51.15046 | -0.17345 | 200 ft | 78 kts | 256° |
| 2026-04-16 13:42 | 51.14883 | -0.18527 | 200 ft | 136 kts | 257° |
| 2026-04-16 13:43 | 51.14656 | -0.20192 | 403 ft | 163 kts | 256° |
| 2026-04-16 13:43 | 51.14423 | -0.21980 | 940 ft | 167 kts | 257° |
| 2026-04-16 13:43 | 51.14184 | -0.23780 | 1548 ft | 169 kts | 256° |
| 2026-04-16 13:43 | 51.13938 | -0.25593 | 2095 ft | 173 kts | 256° |
| 2026-04-16 13:44 | 51.13708 | -0.27551 | 2454 ft | 189 kts | 266° |
| 2026-04-16 13:44 | 51.14003 | -0.29672 | 2778 ft | 210 kts | 295° |
| 2026-04-16 13:44 | 51.15054 | -0.31505 | 3053 ft | 239 kts | 328° |
| 2026-04-16 13:44 | 51.16671 | -0.32184 | 3654 ft | 250 kts | 0° |
| 2026-04-16 13:45 | 51.18325 | -0.31299 | 4326 ft | 258 kts | 37° |
| 2026-04-16 13:45 | 51.19410 | -0.29040 | 4955 ft | 261 kts | 71° |
| 2026-04-16 13:45 | 51.19854 | -0.26259 | 5717 ft | 261 kts | 84° |
| 2026-04-16 13:45 | 51.20100 | -0.23387 | 6434 ft | 262 kts | 83° |
| 2026-04-16 13:46 | 51.20374 | -0.20506 | 7038 ft | 267 kts | 81° |
| 2026-04-16 13:46 | 51.20709 | -0.17558 | 7476 ft | 279 kts | 80° |
| 2026-04-16 13:46 | 51.21124 | -0.14442 | 7817 ft | 294 kts | 81° |
| 2026-04-16 13:46 | 51.21522 | -0.11324 | 8355 ft | 300 kts | 80° |
| 2026-04-16 13:47 | 51.21934 | -0.08048 | 9129 ft | 299 kts | 78° |
| 2026-04-16 13:47 | 51.22361 | -0.04818 | 9836 ft | 298 kts | 78° |
| 2026-04-16 13:47 | 51.22789 | -0.01623 | 10481 ft | 300 kts | 78° |
| 2026-04-16 13:47 | 51.23224 | 0.01693 | 10793 ft | 313 kts | 78° |
| 2026-04-16 13:48 | 51.23682 | 0.05206 | 11058 ft | 328 kts | 78° |
| 2026-04-16 13:48 | 51.24149 | 0.08803 | 11358 ft | 339 kts | 78° |
| 2026-04-16 13:48 | 51.24630 | 0.12533 | 11821 ft | 346 kts | 79° |
| 2026-04-16 13:48 | 51.25103 | 0.16310 | 12309 ft | 352 kts | 81° |
| 2026-04-16 13:49 | 51.25349 | 0.20183 | 12791 ft | 356 kts | 90° |
| 2026-04-16 13:49 | 51.25244 | 0.24136 | 13292 ft | 358 kts | 97° |
| 2026-04-16 13:49 | 51.24948 | 0.28120 | 13790 ft | 361 kts | 99° |
| 2026-04-16 13:49 | 51.24625 | 0.32068 | 14306 ft | 363 kts | 99° |
| 2026-04-16 13:50 | 51.24296 | 0.36098 | 14811 ft | 366 kts | 98° |
| 2026-04-16 13:50 | 51.23977 | 0.40141 | 15185 ft | 372 kts | 98° |
| 2026-04-16 13:50 | 51.23661 | 0.44249 | 15720 ft | 374 kts | 98° |
| 2026-04-16 13:50 | 51.23346 | 0.48351 | 16231 ft | 377 kts | 98° |
| 2026-04-16 13:51 | 51.23027 | 0.52499 | 16702 ft | 380 kts | 98° |
| 2026-04-16 13:51 | 51.22703 | 0.56674 | 17182 ft | 383 kts | 98° |
| 2026-04-16 13:51 | 51.22374 | 0.60893 | 17665 ft | 385 kts | 98° |
| 2026-04-16 13:51 | 51.22047 | 0.65072 | 18112 ft | 387 kts | 98° |
| 2026-04-16 13:52 | 51.21708 | 0.69386 | 18552 ft | 390 kts | 98° |
| 2026-04-16 13:52 | 51.21369 | 0.73672 | 18958 ft | 394 kts | 98° |
| 2026-04-16 13:52 | 51.21019 | 0.78062 | 19358 ft | 397 kts | 98° |
| 2026-04-16 13:52 | 51.20667 | 0.82459 | 19754 ft | 401 kts | 98° |
| 2026-04-16 13:53 | 51.20309 | 0.86918 | 20168 ft | 404 kts | 98° |
| 2026-04-16 13:53 | 51.19955 | 0.91319 | 20558 ft | 406 kts | 98° |
| 2026-04-16 13:53 | 51.19591 | 0.95792 | 20932 ft | 409 kts | 98° |
| 2026-04-16 13:53 | 51.19223 | 1.00316 | 21349 ft | 411 kts | 98° |
| 2026-04-16 13:54 | 51.18854 | 1.04841 | 21712 ft | 414 kts | 98° |
| 2026-04-16 13:54 | 51.18481 | 1.09380 | 22070 ft | 418 kts | 98° |
| 2026-04-16 13:54 | 51.18102 | 1.13982 | 22433 ft | 421 kts | 98° |
| 2026-04-16 13:54 | 51.17720 | 1.18567 | 22770 ft | 423 kts | 98° |
| 2026-04-16 13:55 | 51.17328 | 1.23240 | 23133 ft | 426 kts | 98° |
| 2026-04-16 13:55 | 51.16935 | 1.27917 | 23469 ft | 429 kts | 98° |
| 2026-04-16 13:55 | 51.16539 | 1.32607 | 23816 ft | 431 kts | 98° |
| 2026-04-16 13:55 | 51.16190 | 1.37340 | 24163 ft | 434 kts | 95° |
| 2026-04-16 13:56 | 51.15945 | 1.42171 | 24490 ft | 437 kts | 94° |
| 2026-04-16 13:56 | 51.15720 | 1.46990 | 24811 ft | 440 kts | 94° |
| 2026-04-16 13:56 | 51.15495 | 1.51799 | 25132 ft | 443 kts | 94° |
| 2026-04-16 13:56 | 51.15263 | 1.56716 | 25459 ft | 445 kts | 94° |
| 2026-04-16 13:57 | 51.15023 | 1.61644 | 25787 ft | 448 kts | 94° |
| 2026-04-16 13:57 | 51.14782 | 1.66584 | 26091 ft | 450 kts | 95° |
| 2026-04-16 13:57 | 51.14530 | 1.71658 | 26369 ft | 453 kts | 95° |
| 2026-04-16 13:58 | 51.14014 | 1.81869 | 26955 ft | 458 kts | 95° |
| 2026-04-16 13:58 | 51.13752 | 1.86993 | 27244 ft | 460 kts | 95° |
| 2026-04-16 13:58 | 51.13488 | 1.92068 | 27537 ft | 461 kts | 95° |
| 2026-04-16 13:58 | 51.13224 | 1.97111 | 27918 ft | 461 kts | 94° |
| 2026-04-16 13:59 | 51.12957 | 2.02223 | 28222 ft | 462 kts | 94° |
| 2026-04-16 13:59 | 51.12690 | 2.07304 | 28458 ft | 465 kts | 94° |
| 2026-04-16 13:59 | 51.12416 | 2.12468 | 28695 ft | 467 kts | 94° |
| 2026-04-16 13:59 | 51.12145 | 2.17557 | 28923 ft | 469 kts | 94° |
| 2026-04-16 14:00 | 51.11861 | 2.22769 | 29159 ft | 472 kts | 94° |
| 2026-04-16 14:00 | 51.11576 | 2.27977 | 29392 ft | 473 kts | 94° |
| 2026-04-16 14:00 | 51.11294 | 2.33114 | 29612 ft | 475 kts | 94° |
| 2026-04-16 14:00 | 51.11001 | 2.38358 | 29838 ft | 477 kts | 94° |
| 2026-04-16 14:01 | 51.10706 | 2.43653 | 30045 ft | 479 kts | 94° |
| 2026-04-16 14:01 | 51.10410 | 2.48882 | 30239 ft | 481 kts | 94° |
| 2026-04-16 14:01 | 51.10103 | 2.54210 | 30448 ft | 483 kts | 93° |
| 2026-04-16 14:01 | 51.09786 | 2.59471 | 30636 ft | 485 kts | 95° |
| 2026-04-16 14:02 | 51.09299 | 2.64831 | 30817 ft | 488 kts | 99° |
| 2026-04-16 14:02 | 51.08597 | 2.70106 | 30971 ft | 490 kts | 104° |
| 2026-04-16 14:02 | 51.07700 | 2.75312 | 31134 ft | 492 kts | 106° |
| 2026-04-16 14:02 | 51.06741 | 2.80547 | 31296 ft | 494 kts | 107° |
| 2026-04-16 14:03 | 51.05782 | 2.85729 | 31470 ft | 495 kts | 106° |
| 2026-04-16 14:03 | 51.04910 | 2.90445 | 31603 ft | 497 kts | 106° |
| 2026-04-16 14:03 | 51.03932 | 2.95742 | 31759 ft | 499 kts | 106° |
| 2026-04-16 14:03 | 51.03114 | 3.00185 | 31895 ft | 500 kts | 106° |
| 2026-04-16 14:04 | 51.02165 | 3.05355 | 32037 ft | 502 kts | 106° |
| 2026-04-16 14:04 | 51.01202 | 3.10583 | 32248 ft | 502 kts | 106° |
| 2026-04-16 14:04 | 51.00221 | 3.15897 | 32478 ft | 501 kts | 106° |
| 2026-04-16 14:04 | 50.99242 | 3.21183 | 32678 ft | 501 kts | 106° |
| 2026-04-16 14:05 | 50.98268 | 3.26425 | 32863 ft | 502 kts | 106° |
| 2026-04-16 14:05 | 50.97280 | 3.31726 | 33059 ft | 502 kts | 106° |
| 2026-04-16 14:05 | 50.96288 | 3.37044 | 33249 ft | 502 kts | 106° |
| 2026-04-16 14:05 | 50.95327 | 3.42180 | 33447 ft | 502 kts | 106° |
| 2026-04-16 14:06 | 50.94305 | 3.47623 | 33589 ft | 504 kts | 105° |
| 2026-04-16 14:06 | 50.93311 | 3.52905 | 33750 ft | 505 kts | 106° |
| 2026-04-16 14:06 | 50.92304 | 3.58243 | 33854 ft | 506 kts | 106° |
| 2026-04-16 14:06 | 50.91290 | 3.63584 | 34010 ft | 507 kts | 105° |
| 2026-04-16 14:07 | 50.90293 | 3.68837 | 34128 ft | 508 kts | 107° |
| 2026-04-16 14:07 | 50.89255 | 3.74295 | 34256 ft | 509 kts | 106° |
| 2026-04-16 14:07 | 50.88237 | 3.79624 | 34359 ft | 510 kts | 106° |
| 2026-04-16 14:07 | 50.87203 | 3.85011 | 34448 ft | 511 kts | 107° |
| 2026-04-16 14:08 | 50.85130 | 3.95773 | 34679 ft | 512 kts | 107° |
| 2026-04-16 14:08 | 50.84102 | 4.01087 | 34780 ft | 512 kts | 106° |
| 2026-04-16 14:08 | 50.83056 | 4.06482 | 34879 ft | 513 kts | 106° |
| 2026-04-16 14:09 | 50.82012 | 4.11865 | 35001 ft | 511 kts | 106° |
| 2026-04-16 14:09 | 50.80964 | 4.17252 | 35082 ft | 512 kts | 106° |
| 2026-04-16 14:09 | 50.78875 | 4.27947 | 35189 ft | 512 kts | 106° |
| 2026-04-16 14:10 | 50.76757 | 4.38705 | 35194 ft | 513 kts | 106° |
| 2026-04-16 14:10 | 50.74636 | 4.49418 | 35184 ft | 512 kts | 106° |
| 2026-04-16 14:11 | 50.72510 | 4.60117 | 35181 ft | 512 kts | 106° |
| 2026-04-16 14:11 | 50.70392 | 4.70709 | 35185 ft | 511 kts | 107° |
| 2026-04-16 14:12 | 50.68240 | 4.81414 | 35186 ft | 511 kts | 107° |
| 2026-04-16 14:12 | 50.65962 | 4.91993 | 35189 ft | 510 kts | 111° |
| 2026-04-16 14:13 | 50.63029 | 5.02214 | 35186 ft | 511 kts | 115° |
| 2026-04-16 14:13 | 50.59978 | 5.12230 | 35186 ft | 511 kts | 115° |
| 2026-04-16 14:14 | 50.56916 | 5.22297 | 35189 ft | 511 kts | 115° |
| 2026-04-16 14:14 | 50.53861 | 5.32338 | 35185 ft | 509 kts | 115° |
| 2026-04-16 14:15 | 50.50809 | 5.42337 | 35187 ft | 509 kts | 115° |
| 2026-04-16 14:15 | 50.47741 | 5.52357 | 35182 ft | 509 kts | 115° |
| 2026-04-16 14:16 | 50.44671 | 5.62350 | 35182 ft | 508 kts | 115° |
| 2026-04-16 14:16 | 50.41598 | 5.72295 | 35176 ft | 508 kts | 115° |
| 2026-04-16 14:17 | 50.38530 | 5.82203 | 35178 ft | 508 kts | 116° |
| 2026-04-16 14:17 | 50.35418 | 5.92184 | 35173 ft | 508 kts | 115° |
| 2026-04-16 14:18 | 50.32328 | 6.02073 | 35180 ft | 507 kts | 115° |
| 2026-04-16 14:18 | 50.29212 | 6.12010 | 35178 ft | 508 kts | 115° |
| 2026-04-16 14:19 | 50.26120 | 6.21823 | 35181 ft | 508 kts | 115° |
| 2026-04-16 14:19 | 50.22994 | 6.31703 | 35183 ft | 508 kts | 115° |
| 2026-04-16 14:20 | 50.19767 | 6.41451 | 35185 ft | 508 kts | 120° |
| 2026-04-16 14:20 | 50.15845 | 6.50592 | 35187 ft | 507 kts | 128° |
| 2026-04-16 14:21 | 50.11312 | 6.59061 | 35199 ft | 507 kts | 131° |
| 2026-04-16 14:21 | 50.06757 | 6.67388 | 35198 ft | 507 kts | 132° |
| 2026-04-16 14:22 | 50.02187 | 6.75773 | 35198 ft | 507 kts | 131° |
| 2026-04-16 14:22 | 49.97768 | 6.83872 | 35196 ft | 507 kts | 131° |
| 2026-04-16 14:23 | 49.94761 | 6.89379 | 35197 ft | 507 kts | 131° |
| 2026-04-16 14:23 | 49.88946 | 6.99996 | 35199 ft | 507 kts | 131° |
| 2026-04-16 14:24 | 49.84674 | 7.07766 | 35205 ft | 506 kts | 131° |
| 2026-04-16 14:24 | 49.80191 | 7.15902 | 35207 ft | 505 kts | 131° |
| 2026-04-16 14:25 | 49.75674 | 7.24062 | 35215 ft | 507 kts | 131° |
| 2026-04-16 14:25 | 49.71086 | 7.32344 | 35214 ft | 505 kts | 131° |
| 2026-04-16 14:26 | 49.66518 | 7.40547 | 35213 ft | 505 kts | 131° |
| 2026-04-16 14:26 | 49.61945 | 7.48727 | 35209 ft | 505 kts | 131° |
| 2026-04-16 14:27 | 49.57364 | 7.56908 | 35205 ft | 504 kts | 130° |
| 2026-04-16 14:27 | 49.52804 | 7.65028 | 35200 ft | 504 kts | 131° |
| 2026-04-16 14:28 | 49.48292 | 7.73034 | 35195 ft | 504 kts | 131° |
| 2026-04-16 14:28 | 49.43684 | 7.81182 | 35195 ft | 504 kts | 131° |
| 2026-04-16 14:29 | 49.39088 | 7.89282 | 35189 ft | 504 kts | 131° |
| 2026-04-16 14:29 | 49.34493 | 7.97358 | 35190 ft | 504 kts | 131° |
| 2026-04-16 14:30 | 49.29877 | 8.05458 | 35191 ft | 503 kts | 131° |
| 2026-04-16 14:30 | 49.25283 | 8.13478 | 35192 ft | 501 kts | 131° |
| 2026-04-16 14:31 | 49.20705 | 8.21451 | 35185 ft | 502 kts | 131° |
| 2026-04-16 14:31 | 49.16079 | 8.29468 | 35184 ft | 501 kts | 131° |
| 2026-04-16 14:32 | 49.11488 | 8.37414 | 35187 ft | 501 kts | 131° |
| 2026-04-16 14:32 | 49.06883 | 8.45364 | 35184 ft | 500 kts | 131° |
| 2026-04-16 14:33 | 49.02303 | 8.53250 | 35187 ft | 499 kts | 131° |
| 2026-04-16 14:33 | 48.97662 | 8.61132 | 35189 ft | 499 kts | 133° |
| 2026-04-16 14:34 | 48.92895 | 8.68786 | 35194 ft | 496 kts | 134° |
| 2026-04-16 14:34 | 48.88152 | 8.76338 | 35196 ft | 496 kts | 134° |
| 2026-04-16 14:35 | 48.83443 | 8.83851 | 35197 ft | 495 kts | 134° |
| 2026-04-16 14:35 | 48.78704 | 8.91412 | 35198 ft | 494 kts | 134° |
| 2026-04-16 14:36 | 48.74111 | 8.98719 | 35193 ft | 493 kts | 134° |
| 2026-04-16 14:36 | 48.69520 | 9.06000 | 35192 ft | 492 kts | 134° |
| 2026-04-16 14:37 | 48.64854 | 9.13384 | 35209 ft | 492 kts | 134° |
| 2026-04-16 14:37 | 48.60148 | 9.20805 | 35211 ft | 493 kts | 134° |
| 2026-04-16 14:38 | 48.55389 | 9.28288 | 35209 ft | 493 kts | 134° |
| 2026-04-16 14:38 | 48.50684 | 9.35668 | 35208 ft | 491 kts | 134° |
| 2026-04-16 14:39 | 48.45956 | 9.43069 | 35204 ft | 491 kts | 134° |
| 2026-04-16 14:39 | 48.41207 | 9.50475 | 35206 ft | 491 kts | 134° |
| 2026-04-16 14:40 | 48.36480 | 9.57822 | 35205 ft | 490 kts | 134° |
| 2026-04-16 14:40 | 48.32017 | 9.65274 | 35213 ft | 489 kts | 129° |
| 2026-04-16 14:41 | 48.27690 | 9.73334 | 35214 ft | 488 kts | 128° |
| 2026-04-16 14:41 | 48.23439 | 9.81251 | 35221 ft | 487 kts | 129° |
| 2026-04-16 14:42 | 48.19203 | 9.89100 | 35209 ft | 487 kts | 129° |
| 2026-04-16 14:42 | 48.14950 | 9.96949 | 35219 ft | 486 kts | 129° |
| 2026-04-16 14:43 | 48.10679 | 10.04804 | 35223 ft | 486 kts | 129° |
| 2026-04-16 14:43 | 48.06405 | 10.12637 | 35222 ft | 486 kts | 129° |
| 2026-04-16 14:44 | 48.02126 | 10.20461 | 35228 ft | 486 kts | 129° |
| 2026-04-16 14:44 | 47.97860 | 10.28242 | 35231 ft | 485 kts | 128° |
| 2026-04-16 14:45 | 47.93612 | 10.35968 | 35235 ft | 485 kts | 128° |
| 2026-04-16 14:45 | 47.89358 | 10.43683 | 35241 ft | 483 kts | 128° |
| 2026-04-16 14:46 | 47.85086 | 10.51408 | 35238 ft | 484 kts | 128° |
| 2026-04-16 14:46 | 47.80799 | 10.59136 | 35243 ft | 483 kts | 128° |
| 2026-04-16 14:47 | 47.76542 | 10.66789 | 35241 ft | 484 kts | 129° |
| 2026-04-16 14:47 | 47.72264 | 10.74459 | 35242 ft | 483 kts | 129° |
| 2026-04-16 14:48 | 47.67981 | 10.82116 | 35241 ft | 483 kts | 129° |
| 2026-04-16 14:48 | 47.63674 | 10.89791 | 35239 ft | 482 kts | 129° |
| 2026-04-16 14:49 | 47.59403 | 10.97381 | 35238 ft | 482 kts | 129° |
| 2026-04-16 14:49 | 47.55130 | 11.04954 | 35239 ft | 480 kts | 129° |
| 2026-04-16 14:50 | 47.50850 | 11.12518 | 35234 ft | 479 kts | 129° |
| 2026-04-16 14:50 | 47.46587 | 11.20034 | 35232 ft | 479 kts | 129° |
| 2026-04-16 14:51 | 47.42279 | 11.27610 | 35225 ft | 479 kts | 129° |
| 2026-04-16 14:51 | 47.38000 | 11.35111 | 35228 ft | 478 kts | 129° |